createdAt,value
2024-03-06T00:00:07.680Z,16.75
2024-03-06T00:02:38.162Z,16.50
2024-03-06T00:05:07.167Z,16.15
2024-03-06T00:07:35.514Z,16.50
2024-03-06T00:10:03.946Z,15.55
2024-03-06T00:12:32.306Z,16.42
2024-03-06T00:15:00.624Z,16.88
2024-03-06T00:17:29.389Z,15.95
2024-03-06T00:19:57.644Z,16.50
2024-03-06T00:22:25.889Z,16.52
2024-03-06T00:24:54.573Z,16.35
2024-03-06T00:27:22.699Z,16.05
2024-03-06T00:29:50.915Z,17.05
2024-03-06T00:32:19.352Z,16.00
2024-03-06T00:34:47.704Z,15.52
2024-03-06T00:37:15.865Z,16.77
2024-03-06T00:39:48.710Z,16.67
2024-03-06T00:42:20.499Z,17.08
2024-03-06T00:44:48.719Z,17.08
2024-03-06T00:47:16.951Z,17.08
2024-03-06T00:49:45.203Z,15.15
2024-03-06T00:52:13.466Z,16.75
2024-03-06T00:54:41.818Z,16.58
2024-03-06T00:57:10.112Z,15.80
2024-03-06T00:59:38.333Z,16.08
2024-03-06T01:02:06.569Z,15.77
2024-03-06T01:04:34.775Z,16.05
2024-03-06T01:07:03.103Z,16.20
2024-03-06T01:09:31.689Z,16.30
2024-03-06T01:11:59.890Z,17.30
2024-03-06T01:14:28.197Z,16.65
2024-03-06T01:16:56.464Z,16.77
2024-03-06T01:19:25.371Z,16.48
2024-03-06T01:21:53.566Z,17.60
2024-03-06T01:24:21.750Z,16.10
2024-03-06T01:26:49.869Z,17.88
2024-03-06T01:29:18.216Z,17.20
2024-03-06T01:31:49.053Z,17.73
2024-03-06T01:34:17.313Z,17.42
2024-03-06T01:36:45.459Z,16.65
2024-03-06T01:39:13.717Z,17.90
2024-03-06T01:41:51.738Z,18.38
2024-03-06T01:44:21.085Z,18.65
2024-03-06T01:46:49.344Z,17.85
2024-03-06T01:49:28.185Z,17.90
2024-03-06T01:52:04.747Z,16.90
2024-03-06T01:54:36.750Z,18.77
2024-03-06T01:57:05.869Z,19.00
2024-03-06T01:59:37.263Z,18.58
2024-03-06T02:02:06.658Z,17.90
2024-03-06T02:04:35.235Z,18.73
2024-03-06T02:07:05.011Z,18.10
2024-03-06T02:09:33.324Z,18.98
2024-03-06T02:12:01.499Z,18.92
2024-03-06T02:14:30.988Z,18.02
2024-03-06T02:16:59.286Z,18.15
2024-03-06T02:19:38.967Z,18.15
2024-03-06T02:22:07.573Z,18.00
2024-03-06T02:24:36.645Z,18.52
2024-03-06T02:27:07.967Z,17.95
2024-03-06T02:32:05.067Z,19.35
2024-03-06T02:34:33.579Z,18.92
2024-03-06T02:37:01.917Z,18.70
2024-03-06T02:39:30.208Z,18.52
2024-03-06T02:41:58.465Z,19.63
2024-03-06T02:44:26.735Z,19.90
2024-03-06T02:46:55.155Z,20.65
2024-03-06T02:49:23.364Z,20.42
2024-03-06T02:51:52.375Z,19.58
2024-03-06T02:54:20.543Z,21.23
2024-03-06T02:56:48.784Z,21.88
2024-03-06T02:59:17.767Z,21.13
2024-03-06T03:01:45.954Z,20.75
2024-03-06T03:04:14.473Z,21.95
2024-03-06T03:06:42.593Z,20.42
2024-03-06T03:09:14.491Z,21.17
2024-03-06T03:11:46.752Z,21.02
2024-03-06T03:14:15.775Z,21.65
2024-03-06T03:16:46.879Z,19.98
2024-03-06T03:19:15.145Z,20.77
2024-03-06T03:21:47.241Z,19.80
2024-03-06T03:24:15.519Z,21.45
2024-03-06T03:26:44.477Z,21.92
2024-03-06T03:29:12.736Z,21.52
2024-03-06T03:31:41.156Z,21.27
2024-03-06T03:34:09.511Z,22.23
2024-03-06T03:36:37.639Z,23.98
2024-03-06T03:39:05.973Z,22.95
2024-03-06T03:41:34.089Z,21.83
2024-03-06T03:44:02.297Z,23.15
2024-03-06T03:46:30.463Z,23.42
2024-03-06T03:48:58.633Z,22.30
2024-03-06T03:51:26.813Z,22.60
2024-03-06T03:53:55.470Z,22.92
2024-03-06T03:56:24.223Z,23.33
2024-03-06T03:58:52.449Z,23.05
2024-03-06T04:01:20.743Z,23.35
2024-03-06T04:03:48.989Z,23.52
2024-03-06T04:06:17.397Z,23.55
2024-03-06T04:08:45.758Z,24.60
2024-03-06T04:11:14.058Z,24.77
2024-03-06T04:13:42.447Z,24.98
2024-03-06T04:16:10.702Z,26.55
2024-03-06T04:18:38.996Z,25.40
2024-03-06T04:21:08.165Z,25.92
2024-03-06T04:23:36.474Z,25.65
2024-03-06T04:26:05.935Z,25.60
2024-03-06T04:28:34.478Z,26.48
2024-03-06T04:31:02.713Z,25.50
2024-03-06T04:33:31.059Z,26.38
2024-03-06T04:35:59.240Z,26.50
2024-03-06T04:38:27.963Z,24.48
2024-03-06T04:40:56.265Z,25.42
2024-03-06T04:43:24.545Z,25.25
2024-03-06T04:45:52.718Z,25.27
2024-03-06T04:48:20.928Z,26.13
2024-03-06T04:50:49.182Z,24.55
2024-03-06T04:53:17.638Z,24.98
2024-03-06T04:55:45.934Z,26.58
2024-03-06T04:58:14.893Z,25.40
2024-03-06T05:00:45.539Z,25.73
2024-03-06T05:58:25.182Z,28.80
2024-03-06T06:00:53.434Z,28.25
2024-03-06T06:03:21.644Z,27.60
2024-03-06T06:05:49.843Z,28.50
2024-03-06T06:08:18.027Z,30.25
2024-03-06T06:10:46.416Z,28.77
2024-03-06T06:13:14.728Z,29.55
2024-03-06T06:15:43.658Z,28.00
2024-03-06T06:18:11.889Z,28.27
2024-03-06T06:20:41.293Z,29.73
2024-03-06T06:23:09.624Z,28.08
2024-03-06T06:25:37.840Z,28.70
2024-03-06T06:28:06.329Z,27.63
2024-03-06T06:30:34.814Z,26.40
2024-03-06T06:33:03.080Z,27.70
2024-03-06T06:35:31.338Z,28.27
2024-03-06T06:37:59.542Z,26.15
2024-03-06T06:40:27.793Z,27.55
2024-03-06T06:42:56.543Z,27.75
2024-03-06T06:45:24.854Z,29.70
2024-03-06T06:47:54.281Z,26.67
2024-03-06T06:50:25.682Z,27.15
2024-03-06T06:52:54.114Z,28.33
2024-03-06T06:55:25.220Z,28.27
2024-03-06T06:57:53.601Z,26.00
2024-03-06T07:00:24.639Z,28.55
2024-03-06T07:02:53.124Z,27.10
2024-03-06T07:05:21.468Z,26.80
2024-03-06T07:07:52.927Z,27.70
2024-03-06T07:10:23.224Z,26.60
2024-03-06T07:12:51.409Z,26.67
2024-03-06T07:15:19.887Z,27.83
2024-03-06T07:17:48.160Z,27.35
2024-03-06T07:20:16.575Z,27.67
2024-03-06T07:22:45.068Z,26.85
2024-03-06T07:25:13.348Z,27.10
2024-03-06T07:27:49.238Z,26.83
2024-03-06T07:30:17.905Z,25.98
2024-03-06T07:32:46.159Z,27.25
2024-03-06T07:35:14.716Z,27.73
2024-03-06T07:37:43.030Z,26.33
2024-03-06T07:40:11.978Z,25.50
2024-03-06T07:42:40.829Z,27.85
2024-03-06T07:45:12.323Z,25.52
2024-03-06T07:47:41.510Z,25.98
2024-03-06T07:50:10.484Z,24.88
2024-03-06T07:52:38.684Z,25.60
2024-03-06T07:55:07.907Z,24.27
2024-03-06T07:57:36.188Z,24.67
2024-03-06T08:00:10.917Z,24.92
2024-03-06T08:02:41.963Z,25.77
2024-03-06T08:05:14.443Z,24.85
2024-03-06T08:07:47.521Z,25.05
2024-03-06T08:10:16.308Z,23.63
2024-03-06T08:12:45.621Z,26.13
2024-03-06T08:15:16.361Z,23.55
2024-03-06T08:17:46.168Z,22.70
2024-03-06T08:20:15.051Z,23.60
2024-03-06T08:22:44.517Z,23.55
2024-03-06T08:25:15.267Z,22.92
2024-03-06T08:27:44.737Z,23.63
2024-03-06T08:30:16.484Z,23.13
2024-03-06T08:32:46.369Z,22.42
2024-03-06T08:35:17.998Z,23.83
2024-03-06T08:37:48.694Z,23.25
2024-03-06T08:40:17.124Z,23.38
2024-03-06T08:42:50.156Z,23.33
2024-03-06T08:45:21.745Z,24.60
2024-03-06T08:50:19.525Z,21.85
2024-03-06T08:52:48.567Z,20.60
2024-03-06T08:55:16.940Z,21.75
2024-03-06T08:57:45.751Z,21.35
2024-03-06T09:00:14.274Z,20.85
2024-03-06T09:02:43.430Z,21.13
2024-03-06T09:05:15.241Z,19.85
2024-03-06T09:07:43.760Z,15.95
2024-03-06T09:10:13.386Z,16.10
2024-03-06T09:12:42.498Z,17.05
2024-03-06T09:15:11.294Z,16.33
2024-03-06T09:17:40.265Z,16.38
2024-03-06T09:20:15.272Z,16.33
2024-03-06T09:22:44.519Z,17.23
2024-03-06T09:25:19.219Z,16.77
2024-03-06T09:27:50.168Z,16.23
2024-03-06T09:30:18.497Z,15.98
2024-03-06T09:32:46.767Z,16.08
2024-03-06T09:35:16.728Z,16.75
2024-03-06T09:37:45.614Z,16.15
2024-03-06T09:40:21.697Z,16.90
2024-03-06T09:42:51.454Z,16.63
2024-03-06T09:45:22.139Z,18.13
2024-03-06T09:47:54.950Z,17.52
2024-03-06T09:50:28.435Z,16.83
2024-03-06T09:52:58.478Z,16.73
2024-03-06T09:55:28.338Z,18.02
2024-03-06T09:57:56.473Z,17.67
2024-03-06T10:00:28.778Z,17.42
2024-03-06T10:03:03.370Z,17.40
2024-03-06T10:05:33.100Z,17.13
2024-03-06T10:08:02.808Z,16.00
2024-03-06T10:10:31.329Z,16.17
2024-03-06T10:13:03.541Z,17.15
2024-03-06T10:15:39.269Z,16.85
2024-03-06T10:18:17.882Z,17.25
2024-03-06T10:20:46.292Z,18.63
2024-03-06T10:23:15.238Z,16.80
2024-03-06T10:25:45.752Z,15.23
2024-03-06T10:28:14.710Z,17.38
2024-03-06T10:30:44.737Z,17.00
2024-03-06T10:33:17.518Z,17.83
2024-03-06T10:35:47.915Z,18.42
2024-03-06T10:38:16.780Z,18.00
2024-03-06T10:40:46.334Z,16.55
2024-03-06T10:43:14.658Z,16.60
2024-03-06T10:45:51.810Z,16.45
2024-03-06T10:48:21.168Z,17.05
2024-03-06T10:50:51.768Z,17.10
2024-03-06T10:53:22.877Z,17.47
2024-03-06T10:55:54.065Z,16.70
2024-03-06T10:58:30.141Z,16.52
2024-03-06T11:01:01.514Z,16.88
2024-03-06T11:05:57.764Z,15.35
2024-03-06T11:08:27.956Z,15.48
2024-03-06T11:10:56.207Z,15.65
2024-03-06T11:13:31.412Z,16.17
2024-03-06T11:16:01.261Z,16.42
2024-03-06T11:18:32.259Z,17.05
2024-03-06T11:21:06.209Z,15.93
2024-03-06T11:23:35.173Z,15.43
2024-03-06T11:26:08.036Z,15.90
2024-03-06T11:28:39.846Z,15.45
2024-03-06T11:31:13.979Z,15.70
2024-03-06T11:33:47.246Z,14.75
2024-03-06T11:36:25.026Z,14.23
2024-03-06T11:39:00.710Z,14.80
2024-03-06T11:41:30.977Z,14.48
2024-03-06T11:44:02.037Z,14.10
2024-03-06T11:46:55.643Z,14.50
2024-03-06T11:49:27.543Z,13.93
2024-03-06T11:51:57.499Z,13.40
2024-03-06T11:54:29.298Z,14.35
2024-03-06T11:57:02.644Z,13.55
2024-03-06T11:59:35.958Z,14.57
2024-03-06T12:02:09.470Z,13.95
2024-03-06T12:04:42.924Z,15.10
2024-03-06T12:07:11.419Z,13.35
2024-03-06T12:09:43.427Z,13.35
2024-03-06T12:12:13.875Z,14.30
2024-03-06T12:14:42.896Z,14.13
2024-03-06T12:17:18.347Z,14.38
2024-03-06T12:19:47.475Z,14.43
2024-03-06T12:22:17.844Z,12.88
2024-03-06T12:24:46.386Z,15.60
2024-03-06T12:27:18.706Z,14.55
2024-03-06T12:29:49.101Z,14.55
2024-03-06T12:32:21.343Z,15.27
2024-03-06T12:35:02.710Z,16.05
2024-03-06T12:37:36.253Z,16.00
2024-03-06T12:40:07.045Z,15.68
2024-03-06T12:42:39.516Z,16.70
2024-03-06T12:45:09.661Z,14.82
2024-03-06T12:47:38.669Z,15.73
2024-03-06T12:50:10.168Z,16.20
2024-03-06T12:55:09.911Z,14.55
2024-03-06T13:00:09.315Z,14.50
2024-03-06T13:05:06.117Z,13.85
2024-03-06T13:07:34.423Z,14.35
2024-03-06T13:10:06.091Z,14.88
2024-03-06T13:12:34.634Z,15.80
2024-03-06T13:15:03.129Z,17.48
2024-03-06T13:17:32.303Z,15.23
2024-03-06T13:20:00.602Z,16.75
2024-03-06T13:22:28.929Z,17.15
2024-03-06T13:24:57.207Z,15.73
2024-03-06T13:27:25.514Z,15.07
2024-03-06T13:29:54.247Z,15.63
2024-03-06T13:32:23.438Z,14.90
2024-03-06T13:34:52.054Z,14.07
2024-03-06T13:37:21.070Z,13.63
2024-03-06T13:39:50.595Z,15.75
2024-03-06T13:42:18.869Z,15.23
2024-03-06T13:44:47.227Z,13.40
2024-03-06T13:47:20.445Z,15.50
2024-03-06T13:49:48.691Z,13.90
2024-03-06T13:52:17.784Z,14.57
2024-03-06T13:54:46.052Z,14.77
2024-03-06T13:57:17.183Z,14.07
2024-03-06T13:59:48.588Z,16.08
2024-03-06T14:02:17.734Z,14.70
2024-03-06T14:04:46.390Z,14.82
2024-03-06T14:07:15.127Z,14.82
2024-03-06T14:09:43.301Z,15.05
2024-03-06T14:12:11.615Z,14.50
2024-03-06T14:14:39.859Z,14.00
2024-03-06T14:17:08.138Z,12.40
2024-03-06T14:19:36.383Z,13.38
2024-03-06T14:22:10.457Z,13.77
2024-03-06T14:24:38.988Z,13.07
2024-03-06T14:27:08.607Z,13.45
2024-03-06T14:29:36.939Z,13.13
2024-03-06T14:32:05.522Z,12.70
2024-03-06T14:34:34.079Z,13.43
2024-03-06T14:37:02.867Z,13.13
2024-03-06T14:39:31.091Z,12.35
2024-03-06T14:41:59.307Z,11.45
2024-03-06T14:44:27.636Z,11.73
2024-03-06T14:46:55.972Z,11.45
2024-03-06T14:49:24.202Z,12.20
2024-03-06T14:51:52.464Z,12.98
2024-03-06T14:54:20.624Z,11.73
2024-03-06T14:56:49.040Z,12.43
2024-03-06T14:59:17.693Z,12.00
2024-03-06T15:01:46.746Z,12.82
2024-03-06T15:04:15.180Z,13.25
2024-03-06T15:06:43.590Z,11.52
2024-03-06T15:09:15.685Z,12.02
2024-03-06T15:11:44.423Z,12.77
2024-03-06T15:14:12.718Z,13.55
2024-03-06T15:16:42.470Z,13.55
2024-03-06T15:19:11.421Z,12.77
2024-03-06T15:21:39.669Z,13.30
2024-03-06T15:24:08.411Z,12.00
2024-03-06T15:26:37.962Z,11.68
2024-03-06T15:29:07.744Z,11.93
2024-03-06T15:31:39.146Z,11.00
2024-03-06T15:34:10.384Z,10.35
2024-03-06T15:36:39.403Z,11.88
2024-03-06T15:39:09.017Z,11.90
2024-03-06T15:41:37.289Z,12.10
2024-03-06T15:44:05.621Z,11.80
2024-03-06T15:46:35.725Z,13.10
2024-03-06T15:49:22.567Z,14.23
2024-03-06T15:51:50.797Z,14.20
2024-03-06T15:54:19.069Z,14.20
2024-03-06T15:56:47.400Z,14.55
2024-03-06T15:59:15.761Z,14.35
2024-03-06T16:01:44.185Z,15.32
2024-03-06T16:04:13.559Z,15.05
2024-03-06T16:06:42.709Z,15.13
2024-03-06T16:09:16.061Z,15.52
2024-03-06T16:11:44.763Z,15.85
2024-03-06T16:14:13.710Z,16.88
2024-03-06T16:16:46.379Z,16.70
2024-03-06T16:19:15.890Z,16.05
2024-03-06T16:21:45.426Z,16.20
2024-03-06T16:24:16.538Z,16.17
2024-03-06T16:26:45.106Z,14.20
2024-03-06T16:29:15.940Z,16.08
2024-03-06T16:31:46.729Z,13.85
2024-03-06T16:34:14.957Z,14.98
2024-03-06T16:36:43.188Z,15.30
2024-03-06T16:39:11.396Z,14.82
2024-03-06T16:41:39.701Z,13.70
2024-03-06T16:44:08.357Z,14.20
2024-03-06T16:46:37.035Z,15.88
2024-03-06T16:49:05.541Z,14.27
2024-03-06T16:51:36.630Z,15.82
2024-03-06T16:54:05.682Z,13.73
2024-03-06T16:56:34.026Z,14.32
2024-03-06T16:59:02.371Z,14.95
2024-03-06T17:01:30.980Z,14.18
2024-03-06T17:03:59.260Z,14.10
2024-03-06T17:06:27.662Z,14.02
2024-03-06T17:08:56.028Z,14.85
2024-03-06T17:11:24.658Z,14.32
2024-03-06T17:13:53.022Z,13.80
2024-03-06T17:16:21.388Z,12.98
2024-03-06T17:18:49.711Z,14.68
2024-03-06T17:21:18.086Z,13.10
2024-03-06T17:23:46.552Z,14.07
2024-03-06T17:26:14.831Z,13.50
2024-03-06T17:28:43.507Z,14.38
2024-03-06T17:31:11.859Z,14.43
2024-03-06T17:33:40.232Z,13.52
2024-03-06T17:36:08.763Z,15.18
2024-03-06T17:38:37.053Z,18.35
2024-03-06T17:41:05.392Z,16.75
2024-03-06T17:43:33.737Z,14.88
2024-03-06T17:46:02.272Z,15.43
2024-03-06T17:48:30.564Z,15.73
2024-03-06T17:50:58.921Z,17.77
2024-03-06T17:53:27.203Z,17.35
2024-03-06T17:55:55.416Z,17.80
2024-03-06T17:58:23.660Z,16.42
2024-03-06T18:00:54.840Z,17.13
2024-03-06T18:03:25.897Z,15.93
2024-03-06T18:05:54.435Z,15.88
2024-03-06T18:08:25.055Z,15.80
2024-03-06T18:10:53.328Z,16.73
2024-03-06T18:13:24.622Z,16.60
2024-03-06T18:15:55.772Z,16.20
2024-03-06T18:18:24.023Z,15.77
2024-03-06T18:20:53.016Z,15.25
2024-03-06T18:23:21.389Z,15.07
2024-03-06T18:25:52.605Z,15.25
2024-03-06T18:28:21.651Z,15.23
2024-03-06T18:30:50.406Z,15.65
2024-03-06T18:33:18.659Z,15.82
2024-03-06T18:35:47.769Z,15.05
2024-03-06T18:38:16.016Z,16.15
2024-03-06T18:40:44.238Z,16.38
2024-03-06T18:43:13.031Z,15.70
2024-03-06T18:45:41.677Z,15.43
2024-03-06T18:48:09.941Z,15.32
2024-03-06T18:50:38.322Z,16.65
2024-03-06T18:53:06.620Z,18.75
2024-03-06T18:55:34.986Z,17.98
2024-03-06T18:58:03.213Z,20.98
2024-03-06T19:00:31.531Z,23.83
2024-03-06T19:02:59.789Z,24.05
2024-03-06T19:05:29.641Z,21.85
2024-03-06T19:07:57.902Z,18.63
2024-03-06T19:10:27.202Z,18.92
2024-03-06T19:12:55.413Z,20.20
2024-03-06T19:15:23.584Z,18.25
2024-03-06T19:17:51.964Z,19.42
2024-03-06T19:20:20.234Z,18.55
2024-03-06T19:22:48.487Z,18.92
2024-03-06T19:25:20.078Z,18.85
2024-03-06T19:27:48.594Z,19.55
2024-03-06T19:30:16.835Z,21.13
2024-03-06T19:32:51.348Z,19.48
2024-03-06T19:35:31.584Z,19.33
2024-03-06T19:37:59.857Z,21.00
2024-03-06T19:40:28.313Z,20.42
2024-03-06T19:42:56.727Z,22.15
2024-03-06T19:45:24.931Z,21.17
2024-03-06T19:47:53.234Z,22.90
2024-03-06T19:50:21.692Z,22.88
2024-03-06T19:52:52.120Z,22.33
2024-03-06T19:55:22.073Z,21.77
2024-03-06T19:57:50.913Z,21.92
2024-03-06T20:00:22.577Z,22.58
2024-03-06T20:02:51.787Z,23.70
2024-03-06T20:05:20.011Z,24.83
2024-03-06T20:07:48.185Z,22.85
2024-03-06T20:10:16.719Z,22.33
2024-03-06T20:12:45.375Z,24.05
2024-03-06T20:15:13.624Z,25.50
2024-03-06T20:17:41.966Z,24.60
2024-03-06T20:20:13.488Z,25.75
2024-03-06T20:22:42.503Z,26.55
2024-03-06T20:25:12.750Z,26.13
2024-03-06T20:27:41.915Z,25.98
2024-03-06T20:30:11.067Z,27.05
2024-03-06T20:32:40.158Z,27.50
2024-03-06T20:35:09.139Z,29.08
2024-03-06T20:37:37.434Z,27.60
2024-03-06T20:40:06.539Z,29.10
2024-03-06T20:42:35.245Z,31.23
2024-03-06T20:45:03.824Z,29.30
2024-03-06T20:47:32.536Z,28.25
2024-03-06T20:50:00.852Z,29.50
2024-03-06T20:52:31.756Z,30.35
2024-03-06T20:55:00.139Z,28.75
2024-03-06T20:57:34.372Z,29.73
2024-03-06T21:00:03.055Z,29.88
2024-03-06T21:02:31.272Z,29.58
2024-03-06T21:04:59.574Z,28.50
2024-03-06T21:07:28.389Z,30.50
2024-03-06T21:09:56.596Z,28.80
2024-03-06T21:12:24.942Z,28.88
2024-03-06T21:14:59.355Z,30.20
2024-03-06T21:17:27.967Z,29.20
2024-03-06T21:19:57.789Z,29.58
2024-03-06T21:22:28.190Z,28.45
2024-03-06T21:24:56.376Z,30.88
2024-03-06T21:27:24.586Z,29.27
2024-03-06T21:29:52.927Z,28.92
2024-03-06T21:32:21.528Z,29.50
2024-03-06T21:34:50.078Z,29.15
2024-03-06T21:37:18.745Z,28.45
2024-03-06T21:39:47.069Z,28.27
2024-03-06T21:42:15.259Z,31.15
2024-03-06T21:44:44.289Z,29.23
2024-03-06T21:47:12.640Z,29.80
2024-03-06T21:49:41.013Z,29.85
2024-03-06T21:52:10.288Z,29.85
2024-03-06T21:54:38.430Z,29.42
2024-03-06T21:57:09.726Z,29.17
2024-03-06T22:02:07.912Z,29.10
2024-03-06T22:04:36.339Z,28.95
2024-03-06T22:07:05.690Z,28.02
2024-03-06T22:09:34.471Z,28.80
2024-03-06T22:12:07.819Z,29.75
2024-03-06T22:14:36.206Z,29.85
2024-03-06T22:17:05.189Z,30.75
2024-03-06T22:19:37.729Z,29.50
2024-03-06T22:22:06.050Z,29.88
2024-03-06T22:24:34.524Z,30.70
2024-03-06T22:27:03.373Z,29.40
2024-03-06T22:29:31.580Z,29.13
2024-03-06T22:32:01.720Z,29.95
2024-03-06T22:34:30.181Z,30.20
2024-03-06T22:36:58.344Z,27.10
2024-03-06T22:39:26.580Z,28.23
2024-03-06T22:41:54.798Z,29.25
2024-03-06T22:44:22.959Z,29.00
2024-03-06T22:46:55.368Z,31.92
2024-03-06T22:49:26.455Z,31.33
2024-03-06T22:51:55.018Z,31.00
2024-03-06T22:54:23.395Z,28.00
2024-03-06T22:56:51.709Z,25.95
2024-03-06T22:59:20.017Z,25.33
2024-03-06T23:01:50.704Z,23.50
2024-03-06T23:04:20.092Z,23.55
2024-03-06T23:06:48.272Z,22.95
2024-03-06T23:09:16.583Z,22.30
2024-03-06T23:11:44.882Z,21.10
2024-03-06T23:14:13.195Z,21.45
2024-03-06T23:16:41.398Z,20.13
2024-03-06T23:19:09.955Z,19.83
2024-03-06T23:21:40.014Z,20.17
2024-03-06T23:24:08.567Z,19.40
2024-03-06T23:26:36.751Z,19.90
2024-03-06T23:29:06.139Z,21.98
2024-03-06T23:31:34.498Z,20.48
2024-03-06T23:34:02.770Z,19.02
2024-03-06T23:36:30.961Z,18.83
2024-03-06T23:38:59.285Z,19.15
2024-03-06T23:41:31.261Z,18.67
2024-03-06T23:43:59.777Z,17.08
2024-03-06T23:46:31.505Z,16.63
2024-03-06T23:49:03.450Z,16.50
2024-03-06T23:51:31.645Z,16.63
2024-03-06T23:53:59.919Z,16.67
2024-03-06T23:56:29.059Z,15.50
2024-03-06T23:58:57.213Z,16.38
